createdAt,value
2023-01-18T00:00:13.001Z,80.65
2023-01-18T00:02:39.970Z,80.36
2023-01-18T00:05:09.102Z,80.37
2023-01-18T00:07:35.931Z,80.64
2023-01-18T00:10:02.721Z,80.68
2023-01-18T00:12:29.589Z,80.65
2023-01-18T00:14:56.761Z,80.07
2023-01-18T00:17:23.540Z,80.66
2023-01-18T00:19:50.336Z,80.67
2023-01-18T00:22:18.522Z,80.48
2023-01-18T00:24:45.295Z,81.06
2023-01-18T00:27:12.090Z,80.47
2023-01-18T00:29:38.824Z,80.56
2023-01-18T00:32:06.378Z,80.17
2023-01-18T00:34:38.017Z,80.43
2023-01-18T00:37:04.958Z,80.58
2023-01-18T00:39:33.095Z,80.76
2023-01-18T00:42:18.310Z,80.72
2023-01-18T00:44:45.015Z,80.54
2023-01-18T00:47:11.762Z,79.86
2023-01-18T00:49:38.481Z,80.64
2023-01-18T00:52:05.313Z,80.71
2023-01-18T00:54:33.375Z,80.84
2023-01-18T00:57:00.115Z,80.41
2023-01-18T00:59:26.863Z,80.69
2023-01-18T01:01:53.684Z,80.60
2023-01-18T01:04:38.773Z,80.53
2023-01-18T01:07:05.529Z,80.61
2023-01-18T01:09:33.628Z,80.88
2023-01-18T01:12:18.773Z,80.27
2023-01-18T01:15:06.137Z,80.56
2023-01-18T01:17:55.637Z,80.76
2023-01-18T01:20:42.706Z,80.80
2023-01-18T01:23:28.890Z,80.69
2023-01-18T01:26:10.733Z,80.41
2023-01-18T01:28:39.193Z,80.91
2023-01-18T01:31:08.037Z,80.85
2023-01-18T01:33:35.813Z,80.47
2023-01-18T01:36:05.783Z,80.55
2023-01-18T01:38:32.556Z,80.76
2023-01-18T01:41:02.627Z,80.69
2023-01-18T01:43:41.813Z,80.34
2023-01-18T01:46:29.406Z,80.77
2023-01-18T01:49:02.321Z,80.26
2023-01-18T01:51:29.276Z,80.74
2023-01-18T01:53:59.841Z,80.38
2023-01-18T01:56:29.671Z,80.73
2023-01-18T01:59:00.911Z,80.20
2023-01-18T02:01:28.870Z,80.31
2023-01-18T02:04:00.487Z,80.96
2023-01-18T02:06:33.015Z,80.68
2023-01-18T02:09:00.745Z,80.41
2023-01-18T02:11:29.453Z,80.16
2023-01-18T02:14:00.363Z,80.58
2023-01-18T02:16:43.394Z,80.35
2023-01-18T02:19:26.174Z,80.86
2023-01-18T02:21:57.612Z,81.06
2023-01-18T02:25:05.378Z,80.80
2023-01-18T02:27:43.611Z,80.30
2023-01-18T02:30:19.233Z,79.96
2023-01-18T02:32:58.013Z,80.91
2023-01-18T02:35:36.673Z,80.13
2023-01-18T02:38:09.957Z,80.05
2023-01-18T02:40:58.243Z,80.47
2023-01-18T02:43:45.297Z,80.66
2023-01-18T02:46:45.568Z,80.48
2023-01-18T02:49:18.350Z,80.37
2023-01-18T02:51:45.167Z,80.64
2023-01-18T02:54:13.365Z,80.34
2023-01-18T02:56:42.827Z,79.99
2023-01-18T02:59:14.385Z,80.01
2023-01-18T03:01:46.933Z,80.33
2023-01-18T03:04:18.647Z,80.47
2023-01-18T03:06:51.558Z,80.61
2023-01-18T03:09:21.451Z,80.80
2023-01-18T03:11:57.965Z,80.47
2023-01-18T03:14:39.112Z,80.70
2023-01-18T03:17:14.745Z,80.44
2023-01-18T03:20:05.277Z,80.70
2023-01-18T03:22:55.817Z,80.46
2023-01-18T03:25:27.803Z,80.02
2023-01-18T03:28:17.985Z,80.98
2023-01-18T03:31:04.178Z,80.85
2023-01-18T03:33:44.785Z,79.88
2023-01-18T03:36:17.861Z,80.33
2023-01-18T03:38:47.967Z,80.42
2023-01-18T03:41:17.513Z,80.53
2023-01-18T03:43:46.711Z,80.75
2023-01-18T03:46:19.313Z,80.19
2023-01-18T03:48:47.531Z,80.83
2023-01-18T03:51:19.813Z,80.21
2023-01-18T03:53:50.998Z,80.35
2023-01-18T03:56:24.472Z,80.29
2023-01-18T03:58:55.564Z,80.52
2023-01-18T04:01:23.154Z,80.59
2023-01-18T04:03:51.457Z,80.05
2023-01-18T04:06:22.883Z,80.50
2023-01-18T04:08:50.278Z,80.19
2023-01-18T04:11:17.561Z,80.54
2023-01-18T04:13:44.542Z,80.86
2023-01-18T04:16:11.325Z,80.21
2023-01-18T04:18:39.389Z,80.48
2023-01-18T04:21:07.637Z,80.61
2023-01-18T04:23:35.784Z,80.45
2023-01-18T04:26:02.945Z,80.22
2023-01-18T04:28:29.704Z,79.98
2023-01-18T04:30:57.369Z,80.15
2023-01-18T04:33:26.641Z,80.82
2023-01-18T04:35:56.714Z,80.31
2023-01-18T04:38:24.893Z,80.61
2023-01-18T04:40:51.729Z,80.68
2023-01-18T04:43:18.622Z,80.48
2023-01-18T04:45:53.575Z,80.30
2023-01-18T04:48:20.299Z,80.31
2023-01-18T04:50:48.528Z,80.41
2023-01-18T04:53:15.718Z,80.33
2023-01-18T04:55:44.370Z,80.33
2023-01-18T04:58:11.219Z,80.40
2023-01-18T05:00:41.364Z,80.08
2023-01-18T05:03:08.509Z,80.07
2023-01-18T05:05:35.351Z,80.15
2023-01-18T05:08:02.449Z,80.32
2023-01-18T05:10:29.326Z,80.29
2023-01-18T05:12:57.972Z,80.51
2023-01-18T05:15:25.290Z,80.21
2023-01-18T05:17:52.109Z,80.51
2023-01-18T05:20:19.185Z,80.09
2023-01-18T05:22:46.004Z,80.78
2023-01-18T05:25:12.745Z,80.62
2023-01-18T05:27:39.571Z,80.86
2023-01-18T05:30:11.800Z,80.32
2023-01-18T05:32:39.477Z,80.65
2023-01-18T05:35:07.244Z,80.32
2023-01-18T05:37:34.089Z,80.65
2023-01-18T05:40:01.085Z,80.33
2023-01-18T05:42:28.090Z,80.43
2023-01-18T05:44:54.870Z,80.25
2023-01-18T05:47:23.072Z,80.13
2023-01-18T05:49:49.856Z,80.09
2023-01-18T05:52:17.128Z,80.59
2023-01-18T05:54:43.935Z,80.42
2023-01-18T05:57:11.075Z,80.66
2023-01-18T05:59:38.034Z,80.74
2023-01-18T06:02:06.302Z,80.12
2023-01-18T06:04:34.914Z,80.22
2023-01-18T06:07:02.007Z,80.43
2023-01-18T06:09:30.163Z,80.14
2023-01-18T06:11:57.334Z,80.60
2023-01-18T06:14:24.346Z,80.46
2023-01-18T06:16:52.037Z,80.21
2023-01-18T06:19:19.281Z,80.28
2023-01-18T06:21:47.923Z,80.64
2023-01-18T06:24:14.912Z,80.35
2023-01-18T06:26:41.762Z,80.30
2023-01-18T06:29:08.652Z,80.98
2023-01-18T06:31:35.678Z,80.37
2023-01-18T06:34:09.338Z,80.18
2023-01-18T06:36:36.791Z,80.16
2023-01-18T06:39:06.067Z,80.42
2023-01-18T06:41:33.089Z,80.54
2023-01-18T06:44:00.848Z,80.23
2023-01-18T06:46:28.624Z,80.26
2023-01-18T06:48:55.495Z,80.12
2023-01-18T06:51:22.678Z,80.07
2023-01-18T06:53:51.323Z,80.60
2023-01-18T06:56:19.615Z,80.44
2023-01-18T06:58:46.569Z,80.69
2023-01-18T07:01:13.672Z,80.75
2023-01-18T07:03:40.629Z,80.79
2023-01-18T07:06:07.714Z,80.46
2023-01-18T07:08:35.771Z,80.48
2023-01-18T07:11:08.536Z,80.64
2023-01-18T07:13:40.264Z,80.50
2023-01-18T07:16:09.290Z,80.75
2023-01-18T07:18:36.146Z,80.78
2023-01-18T07:21:07.189Z,80.50
2023-01-18T07:23:35.663Z,80.70
2023-01-18T07:26:03.508Z,80.50
2023-01-18T07:28:31.525Z,80.70
2023-01-18T07:31:00.544Z,80.45
2023-01-18T07:33:27.778Z,80.62
2023-01-18T07:35:55.473Z,80.62
2023-01-18T07:38:23.443Z,80.34
2023-01-18T07:40:50.636Z,80.08
2023-01-18T07:43:18.362Z,80.43
2023-01-18T07:45:54.143Z,80.14
2023-01-18T07:48:23.650Z,80.68
2023-01-18T07:50:55.512Z,80.79
2023-01-18T07:53:23.216Z,80.84
2023-01-18T07:55:50.545Z,80.11
2023-01-18T07:58:17.765Z,80.71
2023-01-18T08:00:45.254Z,80.42
2023-01-18T08:03:14.629Z,80.77
2023-01-18T08:05:46.348Z,80.52
2023-01-18T08:08:15.078Z,80.35
2023-01-18T08:10:43.115Z,80.09
2023-01-18T08:13:11.039Z,80.39
2023-01-18T08:15:39.187Z,80.13
2023-01-18T08:18:07.399Z,80.92
2023-01-18T08:20:35.454Z,80.61
2023-01-18T08:23:04.045Z,80.74
2023-01-18T08:25:33.579Z,80.45
2023-01-18T08:28:02.839Z,80.24
2023-01-18T08:30:38.466Z,81.00
2023-01-18T08:33:05.834Z,80.71
2023-01-18T08:35:35.171Z,80.75
2023-01-18T08:38:04.711Z,80.28
2023-01-18T08:40:33.380Z,80.61
2023-01-18T08:43:03.043Z,80.42
2023-01-18T08:45:30.637Z,80.17
2023-01-18T08:48:06.344Z,80.53
2023-01-18T08:50:34.814Z,80.83
2023-01-18T08:53:04.139Z,80.17
2023-01-18T08:55:32.698Z,81.13
2023-01-18T08:57:59.818Z,80.76
2023-01-18T09:00:30.713Z,80.12
2023-01-18T09:02:58.568Z,80.76
2023-01-18T09:05:27.172Z,80.79
2023-01-18T09:07:55.172Z,80.70
2023-01-18T09:10:23.758Z,80.52
2023-01-18T09:12:52.847Z,80.62
2023-01-18T09:15:20.777Z,80.88
2023-01-18T09:17:47.648Z,80.95
2023-01-18T09:20:16.558Z,80.69
2023-01-18T09:22:48.349Z,81.23
2023-01-18T09:25:18.963Z,80.98
2023-01-18T09:27:47.271Z,80.98
2023-01-18T09:30:16.250Z,80.54
2023-01-18T09:32:43.263Z,80.68
2023-01-18T09:35:10.341Z,80.63
2023-01-18T09:37:37.597Z,80.30
2023-01-18T09:40:05.341Z,80.90
2023-01-18T09:42:41.316Z,80.84
2023-01-18T09:45:23.552Z,81.17
2023-01-18T09:47:58.243Z,80.92
2023-01-18T09:50:25.427Z,80.93
2023-01-18T09:52:59.137Z,80.87
2023-01-18T09:55:37.032Z,80.91
2023-01-18T09:58:16.753Z,80.36
2023-01-18T10:00:47.938Z,80.86
2023-01-18T10:03:22.208Z,80.83
2023-01-18T10:06:08.551Z,80.78
2023-01-18T10:08:39.241Z,80.46
2023-01-18T10:11:10.808Z,81.00
2023-01-18T10:13:48.625Z,80.67
2023-01-18T10:16:20.434Z,81.34
2023-01-18T10:18:51.307Z,81.05
2023-01-18T10:21:29.134Z,81.26
2023-01-18T10:24:24.999Z,80.94
2023-01-18T10:27:04.457Z,81.08
2023-01-18T10:29:50.531Z,80.87
2023-01-18T10:32:21.522Z,80.52
2023-01-18T10:34:51.664Z,80.61
2023-01-18T10:37:30.136Z,80.84
2023-01-18T10:40:04.351Z,81.07
2023-01-18T10:42:40.359Z,81.12
2023-01-18T10:45:22.108Z,80.95
2023-01-18T10:47:54.013Z,81.03
2023-01-18T10:50:35.155Z,80.96
2023-01-18T10:53:21.231Z,80.80
2023-01-18T10:55:59.350Z,80.90
2023-01-18T10:58:33.076Z,80.53
2023-01-18T11:01:03.895Z,80.85
2023-01-18T11:03:43.571Z,80.86
2023-01-18T11:06:11.003Z,80.83
2023-01-18T11:08:37.911Z,80.54
2023-01-18T11:11:06.938Z,80.65
2023-01-18T11:13:42.722Z,80.53
2023-01-18T11:16:17.837Z,80.88
2023-01-18T11:19:02.724Z,80.42
2023-01-18T11:21:44.044Z,80.84
2023-01-18T11:24:15.117Z,80.51
2023-01-18T11:26:52.487Z,80.38
2023-01-18T11:29:22.241Z,80.97
2023-01-18T11:31:53.064Z,80.72
2023-01-18T11:34:29.255Z,80.24
2023-01-18T11:36:58.525Z,80.66
2023-01-18T11:39:29.127Z,80.47
2023-01-18T11:42:22.083Z,80.73
2023-01-18T11:44:57.715Z,80.70
2023-01-18T11:47:38.633Z,80.15
2023-01-18T11:50:23.117Z,80.42
2023-01-18T11:52:54.277Z,80.74
2023-01-18T11:55:31.390Z,80.33
2023-01-18T11:57:59.995Z,80.04
2023-01-18T12:00:37.213Z,80.50
2023-01-18T12:03:29.849Z,80.32
2023-01-18T12:06:03.903Z,80.47
2023-01-18T12:08:54.205Z,80.26
2023-01-18T12:11:38.489Z,80.48
2023-01-18T12:14:16.556Z,80.17
2023-01-18T12:16:50.279Z,79.98
2023-01-18T12:19:38.544Z,79.91
2023-01-18T12:22:43.849Z,80.41
2023-01-18T12:25:35.471Z,80.29
2023-01-18T12:28:11.000Z,79.92
2023-01-18T12:30:52.254Z,79.80
2023-01-18T12:33:43.492Z,79.89
2023-01-18T12:36:46.085Z,80.22
2023-01-18T12:39:19.309Z,79.86
2023-01-18T12:41:57.802Z,79.83
2023-01-18T12:44:36.687Z,80.02
2023-01-18T12:47:21.235Z,79.63
2023-01-18T12:49:59.550Z,79.79
2023-01-18T12:52:27.572Z,79.58
2023-01-18T12:54:59.755Z,79.62
2023-01-18T12:57:29.956Z,79.40
2023-01-18T13:00:02.721Z,79.53
2023-01-18T13:02:33.545Z,79.57
2023-01-18T13:05:05.100Z,79.57
2023-01-18T13:07:35.979Z,79.27
2023-01-18T13:10:04.332Z,79.08
2023-01-18T13:12:33.958Z,79.40
2023-01-18T13:15:07.827Z,79.06
2023-01-18T13:17:40.207Z,79.08
2023-01-18T13:20:12.927Z,78.62
2023-01-18T13:22:50.643Z,78.64
2023-01-18T13:25:40.377Z,78.73
2023-01-18T13:28:18.104Z,78.91
2023-01-18T13:31:01.849Z,78.73
2023-01-18T13:33:31.505Z,78.32
2023-01-18T13:36:04.674Z,78.83
2023-01-18T13:38:41.636Z,78.62
2023-01-18T13:41:12.216Z,78.61
2023-01-18T13:44:25.032Z,78.39
2023-01-18T13:46:51.837Z,78.06
2023-01-18T13:49:37.702Z,78.06
2023-01-18T13:52:29.847Z,78.20
2023-01-18T13:55:23.203Z,78.27
2023-01-18T13:57:54.706Z,77.96
2023-01-18T14:00:25.743Z,78.27
2023-01-18T14:02:56.732Z,77.70
2023-01-18T14:05:26.635Z,77.79
2023-01-18T14:07:57.491Z,77.97
2023-01-18T14:10:30.386Z,77.96
2023-01-18T14:12:59.358Z,77.75
2023-01-18T14:15:38.247Z,77.32
2023-01-18T14:18:16.720Z,77.72
2023-01-18T14:20:54.382Z,77.77
2023-01-18T14:23:41.123Z,77.49
2023-01-18T14:26:10.734Z,77.81
2023-01-18T14:28:46.175Z,77.19
2023-01-18T14:31:20.884Z,77.63
2023-01-18T14:33:47.811Z,77.43
2023-01-18T14:36:20.978Z,77.59
2023-01-18T14:38:47.824Z,77.27
2023-01-18T14:41:17.544Z,77.52
2023-01-18T14:43:46.291Z,77.47
2023-01-18T14:46:21.009Z,76.43
2023-01-18T14:48:51.692Z,76.53
2023-01-18T14:51:22.351Z,76.74
2023-01-18T14:53:52.926Z,76.18
2023-01-18T14:56:21.787Z,76.52
2023-01-18T14:58:53.796Z,76.28
2023-01-18T15:01:26.730Z,75.79
2023-01-18T15:03:54.849Z,75.81
2023-01-18T15:06:33.430Z,75.93
2023-01-18T15:09:01.393Z,76.12
2023-01-18T15:11:28.547Z,76.20
2023-01-18T15:13:57.428Z,76.15
2023-01-18T15:16:28.776Z,76.26
2023-01-18T15:18:56.410Z,76.35
2023-01-18T15:21:25.841Z,76.36
2023-01-18T15:23:56.811Z,76.26
2023-01-18T15:26:40.120Z,76.38
2023-01-18T15:29:17.841Z,76.19
2023-01-18T15:31:52.798Z,76.21
2023-01-18T15:34:26.972Z,76.17
2023-01-18T15:36:56.020Z,76.19
2023-01-18T15:39:23.265Z,76.15
2023-01-18T15:41:51.879Z,76.58
2023-01-18T15:44:34.838Z,76.45
2023-01-18T15:47:14.323Z,76.27
2023-01-18T15:49:43.821Z,76.13
2023-01-18T15:52:10.812Z,76.16
2023-01-18T15:54:37.845Z,76.26
2023-01-18T15:57:12.247Z,76.35
2023-01-18T15:59:41.372Z,76.24
2023-01-18T16:02:19.112Z,76.27
2023-01-18T16:04:46.008Z,76.12
2023-01-18T16:07:36.037Z,76.41
2023-01-18T16:10:09.789Z,75.80
2023-01-18T16:12:36.638Z,76.14
2023-01-18T16:15:03.753Z,76.01
2023-01-18T16:17:31.999Z,76.39
2023-01-18T16:20:01.150Z,75.99
2023-01-18T16:22:34.056Z,75.94
2023-01-18T16:25:06.488Z,76.14
2023-01-18T16:27:34.404Z,76.28
2023-01-18T16:30:05.591Z,76.01
2023-01-18T16:32:36.347Z,76.17
2023-01-18T16:35:12.817Z,76.12
2023-01-18T16:37:44.880Z,75.88
2023-01-18T16:40:14.536Z,76.29
2023-01-18T16:42:57.101Z,75.81
2023-01-18T16:45:23.955Z,75.71
2023-01-18T16:47:52.020Z,76.16
2023-01-18T16:50:19.227Z,76.07
2023-01-18T16:52:46.181Z,76.07
2023-01-18T16:55:15.857Z,76.16
2023-01-18T16:57:43.937Z,75.82
2023-01-18T17:00:18.004Z,76.12
2023-01-18T17:02:44.890Z,76.06
2023-01-18T17:05:14.070Z,75.95
2023-01-18T17:07:40.898Z,76.38
2023-01-18T17:10:21.652Z,76.06
2023-01-18T17:12:48.351Z,76.63
2023-01-18T17:15:15.911Z,76.13
2023-01-18T17:17:43.943Z,76.66
2023-01-18T17:20:19.419Z,76.37
2023-01-18T17:22:46.479Z,76.52
2023-01-18T17:25:13.369Z,76.55
2023-01-18T17:27:40.170Z,76.51
2023-01-18T17:30:08.195Z,76.52
2023-01-18T17:32:35.173Z,76.31
2023-01-18T17:35:02.900Z,76.35
2023-01-18T17:37:31.970Z,76.35
2023-01-18T17:40:11.263Z,76.58
2023-01-18T17:42:40.833Z,76.49
2023-01-18T17:45:09.919Z,76.43
2023-01-18T17:47:39.801Z,76.56
2023-01-18T17:50:10.972Z,77.00
2023-01-18T17:52:40.485Z,76.50
2023-01-18T17:55:11.428Z,76.45
2023-01-18T17:57:38.349Z,76.55
2023-01-18T18:00:08.461Z,76.66
2023-01-18T18:02:35.824Z,76.58
2023-01-18T18:05:04.815Z,77.07
2023-01-18T18:07:31.541Z,77.00
2023-01-18T18:10:02.226Z,77.08
2023-01-18T18:12:35.498Z,76.77
2023-01-18T18:15:03.123Z,76.98
2023-01-18T18:17:31.774Z,76.77
2023-01-18T18:19:59.465Z,76.84
2023-01-18T18:22:26.963Z,76.91
2023-01-18T18:24:54.008Z,76.87
2023-01-18T18:27:24.774Z,76.85
2023-01-18T18:29:54.151Z,76.88
2023-01-18T18:32:21.048Z,76.83
2023-01-18T18:34:47.954Z,77.11
2023-01-18T18:37:18.046Z,76.95
2023-01-18T18:39:44.788Z,76.93
2023-01-18T18:42:11.664Z,77.33
2023-01-18T18:44:39.957Z,77.04
2023-01-18T18:47:10.096Z,77.26
2023-01-18T18:49:36.855Z,77.22
2023-01-18T18:52:08.429Z,77.10
2023-01-18T18:54:35.402Z,76.98
2023-01-18T18:57:03.414Z,77.29
2023-01-18T18:59:30.645Z,77.19
2023-01-18T19:02:02.790Z,77.13
2023-01-18T19:04:29.585Z,77.20
2023-01-18T19:06:56.479Z,77.21
2023-01-18T19:09:23.298Z,77.40
2023-01-18T19:11:55.147Z,77.11
2023-01-18T19:14:25.689Z,77.51
2023-01-18T19:16:52.724Z,77.29
2023-01-18T19:19:21.455Z,77.60
2023-01-18T19:21:48.459Z,77.38
2023-01-18T19:24:15.664Z,77.50
2023-01-18T19:26:42.521Z,77.21
2023-01-18T19:29:10.384Z,77.44
2023-01-18T19:31:37.761Z,77.26
2023-01-18T19:34:05.182Z,77.34
2023-01-18T19:36:34.144Z,77.36
2023-01-18T19:39:03.519Z,77.82
2023-01-18T19:41:32.978Z,77.58
2023-01-18T19:44:00.003Z,77.80
2023-01-18T19:46:27.209Z,77.44
2023-01-18T19:48:58.276Z,77.61
2023-01-18T19:51:25.404Z,77.82
2023-01-18T19:53:54.535Z,77.55
2023-01-18T19:56:22.116Z,77.75
2023-01-18T19:58:51.719Z,77.76
2023-01-18T20:01:35.276Z,78.07
2023-01-18T20:04:04.386Z,77.72
2023-01-18T20:06:31.716Z,77.66
2023-01-18T20:09:12.611Z,77.90
2023-01-18T20:11:45.279Z,77.89
2023-01-18T20:14:12.938Z,77.97
2023-01-18T20:16:40.059Z,78.10
2023-01-18T20:19:07.114Z,78.04
2023-01-18T20:21:34.761Z,78.05
2023-01-18T20:24:03.196Z,78.17
2023-01-18T20:26:36.488Z,78.42
2023-01-18T20:29:09.901Z,78.51
2023-01-18T20:31:38.277Z,78.23
2023-01-18T20:34:05.947Z,78.32
2023-01-18T20:36:36.737Z,78.41
2023-01-18T20:39:05.625Z,78.45
2023-01-18T20:41:32.992Z,78.48
2023-01-18T20:43:59.980Z,78.65
2023-01-18T20:46:27.021Z,78.38
2023-01-18T20:48:53.951Z,78.49
2023-01-18T20:51:23.446Z,78.77
2023-01-18T20:53:50.292Z,78.60
2023-01-18T20:56:28.914Z,78.76
2023-01-18T20:58:58.044Z,78.74
2023-01-18T21:01:31.683Z,78.43
2023-01-18T21:03:59.451Z,78.74
2023-01-18T21:06:26.628Z,78.57
2023-01-18T21:08:54.437Z,78.72
2023-01-18T21:11:26.535Z,78.79
2023-01-18T21:13:54.126Z,79.09
2023-01-18T21:16:22.219Z,78.84
2023-01-18T21:18:49.338Z,78.85
2023-01-18T21:21:19.241Z,79.17
2023-01-18T21:23:46.067Z,78.99
2023-01-18T21:26:13.297Z,79.35
2023-01-18T21:28:41.787Z,78.94
2023-01-18T21:31:09.845Z,79.02
2023-01-18T21:33:38.459Z,78.91
2023-01-18T21:36:08.540Z,79.01
2023-01-18T21:38:36.063Z,79.54
2023-01-18T21:41:21.688Z,79.14
2023-01-18T21:44:11.362Z,79.65
2023-01-18T21:46:38.514Z,79.63
2023-01-18T21:49:06.707Z,79.41
2023-01-18T21:51:52.338Z,79.79
2023-01-18T21:54:19.804Z,79.63
2023-01-18T21:56:47.333Z,79.81
2023-01-18T21:59:15.499Z,79.83
2023-01-18T22:01:46.776Z,79.78
2023-01-18T22:04:34.288Z,79.59
2023-01-18T22:07:04.371Z,80.42
2023-01-18T22:09:31.609Z,79.83
2023-01-18T22:12:00.158Z,80.19
2023-01-18T22:14:42.106Z,80.45
2023-01-18T22:17:11.820Z,80.32
2023-01-18T22:19:39.312Z,80.31
2023-01-18T22:22:07.007Z,80.23
2023-01-18T22:24:33.826Z,80.15
2023-01-18T22:27:00.642Z,79.97
2023-01-18T22:29:28.774Z,80.37
2023-01-18T22:31:57.120Z,80.41
2023-01-18T22:34:23.899Z,80.15
2023-01-18T22:36:50.826Z,80.39
2023-01-18T22:39:17.614Z,80.60
2023-01-18T22:41:45.845Z,80.46
2023-01-18T22:44:15.752Z,80.36
2023-01-18T22:46:45.203Z,80.77
2023-01-18T22:49:12.117Z,80.70
2023-01-18T22:51:38.994Z,80.43
2023-01-18T22:54:08.323Z,80.91
2023-01-18T22:56:35.555Z,80.85
2023-01-18T22:59:02.419Z,80.71
2023-01-18T23:01:31.324Z,81.08
2023-01-18T23:04:01.600Z,80.93
2023-01-18T23:06:42.312Z,81.18
2023-01-18T23:09:10.198Z,81.13
2023-01-18T23:11:37.900Z,81.64
2023-01-18T23:14:23.744Z,81.32
2023-01-18T23:17:09.423Z,82.02
2023-01-18T23:19:37.579Z,82.01
2023-01-18T23:22:07.083Z,81.91
2023-01-18T23:24:40.648Z,82.33
2023-01-18T23:27:09.982Z,82.49
2023-01-18T23:29:37.081Z,82.53
2023-01-18T23:32:04.859Z,82.53
2023-01-18T23:35:09.031Z,82.69
2023-01-18T23:37:37.224Z,82.79
2023-01-18T23:40:23.235Z,82.70
2023-01-18T23:43:11.799Z,82.95
2023-01-18T23:45:57.234Z,83.18
2023-01-18T23:48:42.614Z,82.92
2023-01-18T23:51:28.129Z,83.30
2023-01-18T23:54:15.767Z,83.05
2023-01-18T23:56:43.348Z,83.39
2023-01-18T23:59:10.740Z,83.72
